Main page
Satellite images 15-day forecastsClimateMarine weather Cyclones Lightning AirportsFAQ Newsletter About
Weather : Europe Africa North America South America Asia Australia-Oceania Others
Languages Contact

Hanover, Germany

Langenhagen

latitude: 52-28N, longitude: 009-41E, elevation: 56 m


METAR: EDDV 301920Z 20004KT 7000 NSC 14/13 Q1025 NOSIG
TAF: EDDV 301700Z 3018/0118 24005KT 9999 SCT045 TEMPO 3022/0108 2500 MIFG BKN006

Time: 21:52 (19:52 UTC)

Current weather observation

The report was made 32 minutes ago, at 19:20 UTC  
Wind 04 kt from the South/Southwest
Temperature 14°C
Humidity 94%
Pressure 1025 hPa
Visibility 7000 m

Change units

Forecast

The report was made 02 hours and 52 minutes ago, at 17:00 UTC  
Forecast valid from 30 at 18 UTC to 01 at 18 UTC
Wind 05 kt from the West/Southwest
Visibility 10 km or more
Scattered clouds at a height of 4500 ft
Temporary
from 30 at 22 UTC to 01 at 08 UTC
Visibility 2500 m
Broken clouds at a height of 600 ft
shallow fog
The information on this site is subject to a disclaimer
Weather : Europe Africa North America South America Asia Australia-Oceania Others
Satellite images 15-day forecastsClimateMarine weather Cyclones Lightning AirportsFAQ Languages Contact Newsletter About